Time;durP1;ratioP1;P1;durP2;ratioP2;P2;SDS_P1;SDS_P2;PMS_P1;PMS_P2;Temp;Humidity;BMP_temperature;BMP_pressure;BME280_temperature;BME280_humidity;BME280_pressure;Samples;Min_cycle;Max_cycle;Signal;HPM_P1;HPM_P2
2022/03/16 00:00:41;;;;;;;12.87;11.17;;;9.10;1.00;;;;;;5083122;28;21012;-80
2022/03/16 00:03:08;;;;;;;15.80;12.03;;;9.20;1.00;;;;;;5079115;28;20446;-80
2022/03/16 00:05:35;;;;;;;19.80;12.40;;;9.10;1.00;;;;;;5075594;28;20650;-79
2022/03/16 00:08:03;;;;;;;14.77;11.87;;;9.10;1.00;;;;;;5078239;28;20447;-80
2022/03/16 00:10:29;;;;;;;16.90;12.20;;;9.10;1.00;;;;;;5077235;28;20439;-80
2022/03/16 00:12:58;;;;;;;14.30;11.60;;;9.10;1.00;;;;;;5092174;28;20435;-82
2022/03/16 00:15:25;;;;;;;14.50;11.13;;;9.20;1.00;;;;;;5077703;28;20610;-80
2022/03/16 00:17:54;;;;;;;14.60;12.27;;;9.20;1.00;;;;;;5086084;28;20608;-81
2022/03/16 00:20:21;;;;;;;17.43;12.50;;;9.20;1.00;;;;;;5074669;28;20512;-82
2022/03/16 00:22:48;;;;;;;13.97;11.90;;;9.20;1.00;;;;;;5074481;28;20575;-82
2022/03/16 00:25:16;;;;;;;14.53;13.03;;;9.20;1.00;;;;;;5073564;28;20459;-82
2022/03/16 00:27:43;;;;;;;17.57;13.10;;;9.10;1.00;;;;;;5059677;28;20984;-82
2022/03/16 00:30:11;;;;;;;17.70;11.60;;;9.10;1.00;;;;;;5058747;28;21646;-83
2022/03/16 00:32:37;;;;;;;16.10;12.10;;;9.10;1.00;;;;;;5078705;28;21322;-80
2022/03/16 00:35:05;;;;;;;16.03;12.27;;;9.00;1.00;;;;;;5073873;28;21060;-81
2022/03/16 00:37:33;;;;;;;17.17;12.50;;;9.00;1.00;;;;;;5073366;28;20452;-81
2022/03/16 00:40:00;;;;;;;16.27;12.60;;;9.00;1.00;;;;;;5057007;28;21365;-81
2022/03/16 00:42:28;;;;;;;14.80;13.20;;;9.00;1.00;;;;;;5075759;28;20444;-80
2022/03/16 00:44:55;;;;;;;17.00;13.07;;;9.00;1.00;;;;;;5076035;28;20444;-81
2022/03/16 00:47:22;;;;;;;19.57;13.93;;;8.90;1.00;;;;;;5071452;28;20443;-82
2022/03/16 00:49:49;;;;;;;17.55;13.38;;;9.00;1.00;;;;;;5070238;28;20458;-83
2022/03/16 00:52:15;;;;;;;18.27;14.50;;;8.90;1.00;;;;;;5070940;28;20615;-81
2022/03/16 00:54:42;;;;;;;21.23;14.40;;;8.90;1.00;;;;;;5068102;28;20471;-81
2022/03/16 00:57:09;;;;;;;19.73;14.97;;;8.90;1.00;;;;;;5075695;28;20416;-81
2022/03/16 00:59:39;;;;;;;20.60;14.93;;;8.70;1.00;;;;;;5079962;28;20477;-81
2022/03/16 01:02:05;;;;;;;20.88;15.88;;;8.70;1.00;;;;;;5077527;28;20423;-81
2022/03/16 01:04:32;;;;;;;22.70;15.13;;;8.60;1.00;;;;;;5079604;28;20312;-80
2022/03/16 01:06:59;;;;;;;22.60;15.40;;;8.60;1.00;;;;;;5079718;28;20527;-82
2022/03/16 01:09:26;;;;;;;21.13;15.65;;;8.50;1.00;;;;;;5073078;28;20893;-80
2022/03/16 01:11:52;;;;;;;24.10;17.33;;;8.40;1.00;;;;;;5077283;28;20213;-81
2022/03/16 01:14:19;;;;;;;21.85;15.90;;;8.40;1.00;;;;;;5079337;28;20227;-81
2022/03/16 01:16:47;;;;;;;24.27;16.40;;;8.30;1.00;;;;;;5078573;28;20229;-82
2022/03/16 01:19:14;;;;;;;21.60;16.30;;;8.20;1.00;;;;;;5075906;28;20453;-81
2022/03/16 01:21:41;;;;;;;20.10;15.05;;;8.10;1.00;;;;;;5092286;28;20332;-81
2022/03/16 01:24:08;;;;;;;27.20;16.45;;;8.10;1.00;;;;;;5100996;28;20240;-81
2022/03/16 01:26:35;;;;;;;24.10;16.00;;;8.00;1.00;;;;;;5093063;28;20244;-82
2022/03/16 01:29:02;;;;;;;20.63;16.00;;;7.90;1.00;;;;;;5074549;28;20217;-81
2022/03/16 01:31:29;;;;;;;20.92;16.15;;;7.80;1.00;;;;;;5073370;28;20232;-82
2022/03/16 01:33:57;;;;;;;20.83;15.93;;;7.80;1.00;;;;;;5078286;28;21171;-81
2022/03/16 01:36:25;;;;;;;21.55;16.45;;;7.80;1.00;;;;;;5076012;28;20460;-80
2022/03/16 01:38:52;;;;;;;24.13;16.50;;;7.70;1.00;;;;;;5078965;28;20264;-82
2022/03/16 01:41:19;;;;;;;21.23;15.73;;;7.70;1.00;;;;;;5075744;28;20240;-81
2022/03/16 01:43:45;;;;;;;19.67;15.30;;;7.70;1.00;;;;;;5077530;28;20243;-80
2022/03/16 01:46:12;;;;;;;23.77;17.85;;;7.60;1.00;;;;;;5082857;28;20221;-80
2022/03/16 01:48:39;;;;;;;21.67;15.65;;;7.60;1.00;;;;;;5101623;28;20238;-82
2022/03/16 01:51:13;;;;;;;22.40;17.20;;;7.50;1.00;;;;;;5103061;28;20213;-81
2022/03/16 01:53:41;;;;;;;21.30;15.90;;;7.50;1.00;;;;;;5098700;28;20281;-81
2022/03/16 01:56:09;;;;;;;23.40;15.32;;;7.40;1.00;;;;;;5081708;28;20213;-81
2022/03/16 01:58:36;;;;;;;20.80;15.75;;;7.40;1.00;;;;;;5074565;28;20233;-82
2022/03/16 02:01:03;;;;;;;18.88;15.13;;;7.40;1.00;;;;;;5075562;28;20680;-82
2022/03/16 02:03:29;;;;;;;20.50;15.90;;;7.30;1.00;;;;;;5081945;28;20323;-81
2022/03/16 02:05:56;;;;;;;22.80;16.40;;;7.30;1.00;;;;;;5080631;28;20229;-83
2022/03/16 02:08:25;;;;;;;19.50;15.52;;;7.30;1.00;;;;;;5079543;28;20241;-81
2022/03/16 02:10:52;;;;;;;22.48;15.75;;;7.20;1.00;;;;;;5082509;28;20308;-81
2022/03/16 02:13:19;;;;;;;24.20;15.90;;;7.20;1.00;;;;;;5098847;28;20231;-82
2022/03/16 02:15:46;;;;;;;27.08;16.13;;;7.20;1.00;;;;;;5100265;27;20228;-82
2022/03/16 02:18:14;;;;;;;21.45;15.90;;;7.20;1.00;;;;;;5074634;28;20240;-80
2022/03/16 02:20:40;;;;;;;21.35;15.15;;;7.10;1.00;;;;;;5075271;28;20224;-82
2022/03/16 02:23:10;;;;;;;21.13;15.40;;;7.10;1.00;;;;;;5076129;28;20322;-81
2022/03/16 02:25:49;;;;;;;21.25;15.38;;;7.10;1.00;;;;;;5082920;28;20235;-82
2022/03/16 02:28:16;;;;;;;26.67;17.65;;;7.00;1.00;;;;;;5078080;28;20260;-82
2022/03/16 02:30:43;;;;;;;23.08;16.65;;;7.00;1.00;;;;;;5061584;28;20288;-81
2022/03/16 02:33:10;;;;;;;23.08;16.52;;;6.90;1.00;;;;;;5079912;28;20316;-83
2022/03/16 02:35:37;;;;;;;21.50;15.80;;;6.90;1.00;;;;;;5074543;28;20977;-82
2022/03/16 02:38:04;;;;;;;24.67;17.55;;;6.90;1.00;;;;;;5082143;28;20260;-81
2022/03/16 02:40:32;;;;;;;20.73;15.10;;;6.90;1.00;;;;;;5080903;28;20225;-81
2022/03/16 02:43:02;;;;;;;20.67;14.40;;;6.90;1.00;;;;;;5093779;28;20220;-85
2022/03/16 02:45:29;;;;;;;21.50;15.52;;;6.90;1.00;;;;;;5086617;28;20235;-87
2022/03/16 02:47:58;;;;;;;23.10;16.55;;;6.80;1.00;;;;;;5066298;28;20304;-85
2022/03/16 02:50:25;;;;;;;23.50;16.00;;;6.80;1.00;;;;;;5087228;28;20237;-85
2022/03/16 02:52:53;;;;;;;22.88;16.55;;;6.70;1.00;;;;;;5091829;28;20312;-85
2022/03/16 02:55:20;;;;;;;24.38;15.70;;;6.70;1.00;;;;;;5073726;28;20323;-84
2022/03/16 02:57:48;;;;;;;24.52;15.35;;;6.70;1.00;;;;;;5071247;28;20244;-84
2022/03/16 03:00:19;;;;;;;26.10;16.95;;;6.70;1.00;;;;;;5071033;28;20288;-85
2022/03/16 03:02:46;;;;;;;19.00;15.23;;;6.60;1.00;;;;;;5075995;28;20229;-82
2022/03/16 03:05:12;;;;;;;21.67;15.38;;;6.60;1.00;;;;;;5092764;28;20244;-84
2022/03/16 03:07:39;;;;;;;22.38;16.35;;;6.60;1.00;;;;;;5086517;28;20231;-82
2022/03/16 03:10:11;;;;;;;22.77;17.30;;;6.60;1.00;;;;;;5099087;28;20303;-84
2022/03/16 03:12:46;;;;;;;17.83;14.93;;;6.50;1.00;;;;;;5079001;28;20209;-87
2022/03/16 03:15:16;;;;;;;23.38;16.65;;;6.50;1.00;;;;;;5103185;28;20449;-85
2022/03/16 03:17:46;;;;;;;21.65;15.48;;;6.40;1.00;;;;;;5104262;27;20243;-88
2022/03/16 03:20:14;;;;;;;23.98;16.23;;;6.40;1.00;;;;;;5105342;28;20252;-85
2022/03/16 03:22:41;;;;;;;21.83;16.00;;;6.40;1.00;;;;;;5075426;28;20216;-85
2022/03/16 03:25:11;;;;;;;23.85;15.57;;;6.40;1.00;;;;;;5071327;28;20328;-85
2022/03/16 03:27:38;;;;;;;25.15;18.17;;;6.40;1.00;;;;;;5079410;28;20241;-86
2022/03/16 03:30:06;;;;;;;21.58;16.27;;;6.30;1.00;;;;;;5081434;28;20350;-83
2022/03/16 03:32:34;;;;;;;22.55;16.27;;;6.30;1.00;;;;;;5077788;28;20230;-84
2022/03/16 03:35:01;;;;;;;23.10;16.50;;;6.30;1.00;;;;;;5082495;28;20258;-85
2022/03/16 03:37:29;;;;;;;25.67;19.95;;;6.40;1.00;;;;;;5083880;28;20247;-85
2022/03/16 03:39:57;;;;;;;29.73;18.20;;;6.30;1.00;;;;;;5077760;28;20233;-86
2022/03/16 03:42:25;;;;;;;25.40;18.05;;;6.30;1.00;;;;;;5075514;28;20220;-83
2022/03/16 03:44:54;;;;;;;28.17;18.63;;;6.30;1.00;;;;;;5075173;28;21082;-82
2022/03/16 03:47:21;;;;;;;26.20;19.63;;;6.20;1.00;;;;;;5077785;28;20232;-83
2022/03/16 03:49:49;;;;;;;26.00;17.42;;;6.20;1.00;;;;;;5105016;27;20249;-85
2022/03/16 03:52:16;;;;;;;27.83;18.73;;;6.20;1.00;;;;;;5099214;28;20220;-82
2022/03/16 03:54:46;;;;;;;26.42;17.75;;;6.10;1.00;;;;;;5080622;28;20335;-83
2022/03/16 03:57:13;;;;;;;28.27;19.58;;;6.10;1.00;;;;;;5091391;28;20225;-83
2022/03/16 03:59:40;;;;;;;25.67;18.55;;;6.10;1.00;;;;;;5096715;28;20228;-84
2022/03/16 04:02:07;;;;;;;27.98;17.42;;;6.10;1.00;;;;;;5093999;28;20231;-82
2022/03/16 04:04:33;;;;;;;28.38;19.15;;;6.10;1.00;;;;;;5090914;28;20240;-82
2022/03/16 04:07:04;;;;;;;23.83;18.55;;;6.00;1.00;;;;;;5069043;28;20966;-83
2022/03/16 04:09:31;;;;;;;32.80;21.08;;;6.00;1.00;;;;;;5087647;28;20351;-83
2022/03/16 04:11:59;;;;;;;29.95;19.13;;;5.90;1.00;;;;;;5093774;28;20221;-84
2022/03/16 04:14:27;;;;;;;28.00;19.25;;;6.00;1.00;;;;;;5104051;27;20196;-85
2022/03/16 04:16:54;;;;;;;27.38;19.55;;;5.90;1.00;;;;;;5091662;28;20236;-84
2022/03/16 04:19:21;;;;;;;27.70;20.55;;;5.90;1.00;;;;;;5081717;28;20248;-84
2022/03/16 04:21:48;;;;;;;31.48;20.73;;;5.90;1.00;;;;;;5080146;28;21110;-83
2022/03/16 04:24:16;;;;;;;32.03;21.13;;;5.90;1.00;;;;;;5085604;28;20219;-83
2022/03/16 04:26:43;;;;;;;26.30;18.52;;;5.90;1.00;;;;;;5070748;28;20233;-84
2022/03/16 04:29:10;;;;;;;30.33;20.92;;;5.90;1.00;;;;;;5086958;28;20256;-82
2022/03/16 04:31:38;;;;;;;28.08;20.35;;;5.90;1.00;;;;;;5079729;28;20225;-86
2022/03/16 04:34:05;;;;;;;29.30;21.42;;;5.80;1.00;;;;;;5079240;28;20228;-84
2022/03/16 04:36:31;;;;;;;33.30;20.27;;;5.80;1.00;;;;;;5080632;28;20805;-84
2022/03/16 04:38:58;;;;;;;31.65;20.92;;;5.80;1.00;;;;;;5078210;28;21459;-86
2022/03/16 04:41:27;;;;;;;28.85;22.23;;;5.80;1.00;;;;;;5079481;28;21035;-85
2022/03/16 04:43:54;;;;;;;29.73;20.63;;;5.80;1.00;;;;;;5079038;28;20289;-83
2022/03/16 04:46:21;;;;;;;36.30;23.92;;;5.70;1.00;;;;;;5079728;28;20284;-86
2022/03/16 04:48:47;;;;;;;34.53;22.38;;;5.70;1.00;;;;;;5065161;28;20311;-84
2022/03/16 04:51:14;;;;;;;30.27;21.65;;;5.60;1.00;;;;;;5080747;28;20303;-84
2022/03/16 04:53:41;;;;;;;33.65;21.35;;;5.60;1.00;;;;;;5083323;28;20938;-85
2022/03/16 04:56:08;;;;;;;31.85;20.95;;;5.60;1.00;;;;;;5079178;28;20311;-85
2022/03/16 04:58:36;;;;;;;35.60;23.50;;;5.60;1.00;;;;;;5082365;28;20319;-81
2022/03/16 05:01:03;;;;;;;31.83;21.73;;;5.60;1.00;;;;;;5084583;28;20233;-84
2022/03/16 05:03:31;;;;;;;32.88;20.98;;;5.50;1.00;;;;;;5090019;28;20292;-86
2022/03/16 05:05:58;;;;;;;31.63;22.40;;;5.50;1.00;;;;;;5082670;28;20245;-83
2022/03/16 05:08:29;;;;;;;32.30;21.63;;;5.50;1.00;;;;;;5078756;28;20236;-84
2022/03/16 05:10:56;;;;;;;38.45;24.27;;;5.50;1.00;;;;;;5084401;28;20327;-84
2022/03/16 05:13:23;;;;;;;37.75;25.27;;;5.50;1.00;;;;;;5085997;28;20223;-83
2022/03/16 05:15:51;;;;;;;29.52;22.17;;;5.50;1.00;;;;;;5088443;28;20228;-82
2022/03/16 05:18:18;;;;;;;42.33;22.25;;;5.50;1.00;;;;;;5076896;28;20438;-82
2022/03/16 05:20:45;;;;;;;31.08;21.35;;;5.50;1.00;;;;;;5081063;28;20287;-82
2022/03/16 05:23:11;;;;;;;32.33;23.10;;;5.50;1.00;;;;;;5064848;28;20233;-81
2022/03/16 05:25:38;;;;;;;35.60;23.02;;;5.50;1.00;;;;;;5079757;28;20294;-80
2022/03/16 05:28:05;;;;;;;34.70;26.50;;;5.50;1.00;;;;;;5076072;28;20248;-80
2022/03/16 05:30:34;;;;;;;33.22;23.70;;;5.50;1.00;;;;;;5078771;28;20315;-82
2022/03/16 05:33:02;;;;;;;34.30;24.05;;;5.40;1.00;;;;;;5078806;28;20236;-80
2022/03/16 05:35:31;;;;;;;41.10;25.85;;;5.40;1.00;;;;;;5077983;28;20296;-87
2022/03/16 05:37:58;;;;;;;39.65;23.48;;;5.40;1.00;;;;;;5079932;28;20379;-83
2022/03/16 05:40:26;;;;;;;29.95;21.25;;;5.40;1.00;;;;;;5086562;28;20771;-85
2022/03/16 05:42:53;;;;;;;41.55;22.42;;;5.50;1.00;;;;;;5081677;28;20710;-84
2022/03/16 05:45:20;;;;;;;32.53;22.10;;;5.50;1.00;;;;;;5068279;28;20231;-85
2022/03/16 05:47:47;;;;;;;34.50;23.23;;;5.40;1.00;;;;;;5088075;28;20243;-85
2022/03/16 05:50:15;;;;;;;36.58;25.20;;;5.40;1.00;;;;;;5079440;28;20246;-86
2022/03/16 05:52:46;;;;;;;32.22;24.30;;;5.50;1.00;;;;;;5085509;28;20291;-85
2022/03/16 05:55:14;;;;;;;31.60;21.88;;;5.50;1.00;;;;;;5084529;28;20244;-85
2022/03/16 05:57:43;;;;;;;43.33;25.48;;;5.50;1.00;;;;;;5097000;28;20227;-87
2022/03/16 06:00:14;;;;;;;36.35;23.55;;;5.50;1.00;;;;;;5086639;28;20220;-87
2022/03/16 06:02:43;;;;;;;33.53;22.88;;;5.50;1.00;;;;;;5107474;28;20208;-87
2022/03/16 06:05:10;;;;;;;33.20;24.65;;;5.60;1.00;;;;;;5102190;28;20255;-86
2022/03/16 06:07:40;;;;;;;34.50;23.95;;;5.60;1.00;;;;;;5093302;27;20227;-83
2022/03/16 06:10:10;;;;;;;34.30;24.13;;;5.70;1.00;;;;;;5102810;27;20229;-87
2022/03/16 06:12:50;;;;;;;32.90;23.13;;;5.70;1.00;;;;;;5107678;27;20238;-83
2022/03/16 06:15:17;;;;;;;34.38;23.30;;;5.80;1.00;;;;;;5102195;27;20208;-84
2022/03/16 06:17:46;;;;;;;31.27;23.55;;;5.80;1.00;;;;;;5090010;28;20236;-82
2022/03/16 06:20:12;;;;;;;33.65;22.02;;;5.80;1.00;;;;;;5079876;28;21521;-83
2022/03/16 06:22:40;;;;;;;33.10;23.83;;;5.90;1.00;;;;;;5078865;28;20247;-83
2022/03/16 06:25:08;;;;;;;32.30;21.65;;;6.00;1.00;;;;;;5085137;28;20240;-81
2022/03/16 06:27:34;;;;;;;33.03;22.40;;;6.00;1.00;;;;;;5079125;28;20657;-82
2022/03/16 06:30:02;;;;;;;35.03;22.63;;;6.00;1.00;;;;;;5066074;28;20231;-82
2022/03/16 06:32:29;;;;;;;34.42;22.70;;;6.10;1.00;;;;;;5091849;28;20221;-83
2022/03/16 06:35:00;;;;;;;30.70;22.27;;;6.20;1.00;;;;;;5090148;28;20231;-85
2022/03/16 06:37:27;;;;;;;30.48;22.98;;;6.30;1.00;;;;;;5095764;28;20262;-85
2022/03/16 06:39:55;;;;;;;30.42;22.85;;;6.40;1.00;;;;;;5093642;28;20232;-85
2022/03/16 06:42:22;;;;;;;32.63;23.25;;;6.50;1.00;;;;;;5080210;28;20388;-88
2022/03/16 06:44:50;;;;;;;34.42;22.73;;;6.50;1.00;;;;;;5082746;28;20246;-84
2022/03/16 06:47:17;;;;;;;39.17;23.33;;;6.60;1.00;;;;;;5073324;28;20305;-83
2022/03/16 06:49:45;;;;;;;35.00;23.77;;;6.80;1.00;;;;;;5077370;28;20227;-87
2022/03/16 06:52:12;;;;;;;32.50;22.55;;;6.90;1.00;;;;;;5092310;28;20248;-80
2022/03/16 06:54:42;;;;;;;39.83;25.95;;;6.90;1.00;;;;;;5087763;28;21094;-83
2022/03/16 06:57:12;;;;;;;35.67;22.42;;;7.00;1.00;;;;;;5074576;28;20225;-86
2022/03/16 06:59:42;;;;;;;36.72;25.20;;;7.10;1.00;;;;;;5094182;28;20232;-84
2022/03/16 07:02:09;;;;;;;31.85;24.10;;;7.20;1.00;;;;;;5089656;28;20236;-85
2022/03/16 07:04:36;;;;;;;34.17;27.48;;;7.30;1.00;;;;;;5097151;28;20228;-85
2022/03/16 07:07:03;;;;;;;29.80;21.85;;;7.40;1.00;;;;;;5092890;28;20228;-84
2022/03/16 07:09:32;;;;;;;30.17;21.10;;;7.50;1.00;;;;;;5093208;28;20232;-85
2022/03/16 07:11:59;;;;;;;26.60;21.00;;;7.50;1.00;;;;;;5086146;28;20216;-87
2022/03/16 07:14:32;;;;;;;30.48;21.45;;;7.60;1.00;;;;;;5109248;28;20239;-86
2022/03/16 07:19:41;;;;;;;35.47;23.77;;;7.80;1.00;;;;;;5082963;28;20225;-87
2022/03/16 07:22:07;;;;;;;33.58;22.55;;;7.90;1.00;;;;;;5091453;28;20241;-88
2022/03/16 07:24:34;;;;;;;36.42;25.20;;;8.10;1.00;;;;;;5096689;28;20282;-86
2022/03/16 07:27:03;;;;;;;33.15;23.13;;;8.20;1.00;;;;;;5093239;28;20272;-86
2022/03/16 07:29:36;;;;;;;33.15;23.58;;;8.30;1.00;;;;;;5096583;28;20238;-87
2022/03/16 07:32:03;;;;;;;36.88;23.00;;;8.40;1.00;;;;;;5097483;28;20258;-86
2022/03/16 07:34:30;;;;;;;31.30;22.50;;;8.50;1.00;;;;;;5101312;28;20224;-87
2022/03/16 07:36:57;;;;;;;32.90;23.23;;;8.50;1.00;;;;;;5101317;28;20224;-86
2022/03/16 07:39:24;;;;;;;32.53;23.90;;;8.50;1.00;;;;;;5100785;28;20236;-85
2022/03/16 07:41:51;;;;;;;36.65;26.08;;;8.40;1.00;;;;;;5098549;28;20310;-87
2022/03/16 07:44:19;;;;;;;33.42;24.00;;;8.30;1.00;;;;;;5056166;28;20714;-86
2022/03/16 07:46:48;;;;;;;24.85;18.80;;;8.40;1.00;;;;;;5091766;28;20350;-87
2022/03/16 07:49:14;;;;;;;22.90;17.80;;;8.40;1.00;;;;;;5068374;28;20240;-82
2022/03/16 07:51:41;;;;;;;26.38;19.08;;;8.20;1.00;;;;;;5068093;28;20234;-80
2022/03/16 07:54:08;;;;;;;21.25;16.45;;;8.30;1.00;;;;;;5086108;28;20335;-81
2022/03/16 07:56:35;;;;;;;19.17;15.40;;;8.30;1.00;;;;;;5083263;28;20224;-80
2022/03/16 07:59:02;;;;;;;22.05;15.45;;;8.30;1.00;;;;;;5084299;28;20600;-79
2022/03/16 08:01:29;;;;;;;49.75;23.80;;;8.10;1.00;;;;;;5066106;28;20225;-82
2022/03/16 08:03:57;;;;;;;18.40;15.40;;;8.20;1.00;;;;;;5101393;28;21180;-85
2022/03/16 08:06:24;;;;;;;18.38;15.52;;;8.20;1.00;;;;;;5106943;28;20285;-84
2022/03/16 08:08:51;;;;;;;20.23;14.82;;;8.20;1.00;;;;;;5080081;28;20229;-83
2022/03/16 08:11:18;;;;;;;22.45;15.65;;;8.10;1.00;;;;;;5087552;28;20239;-84
2022/03/16 08:13:45;;;;;;;18.70;14.73;;;8.00;1.00;;;;;;5084632;28;20233;-83
2022/03/16 08:16:12;;;;;;;22.13;16.85;;;8.10;1.00;;;;;;5083105;28;20984;-85
2022/03/16 08:18:39;;;;;;;19.40;15.18;;;8.40;1.00;;;;;;5086957;28;20280;-82
2022/03/16 08:21:07;;;;;;;21.17;16.38;;;8.60;1.00;;;;;;5083013;28;21355;-85
2022/03/16 08:23:35;;;;;;;20.13;15.25;;;8.80;1.00;;;;;;5066857;28;20278;-85
2022/03/16 08:26:02;;;;;;;18.45;13.90;;;9.10;1.00;;;;;;5083925;28;20231;-84
2022/03/16 08:28:29;;;;;;;21.60;16.75;;;9.10;1.00;;;;;;5089877;28;20235;-83
2022/03/16 08:30:56;;;;;;;19.83;15.95;;;8.90;1.00;;;;;;5084510;28;20353;-84
2022/03/16 08:33:23;;;;;;;19.10;15.32;;;9.00;1.00;;;;;;5086960;28;20244;-84
2022/03/16 08:35:50;;;;;;;21.73;16.98;;;8.90;1.00;;;;;;5063316;28;20216;-84
2022/03/16 08:38:19;;;;;;;21.48;16.33;;;9.00;1.00;;;;;;5070308;28;20224;-83
2022/03/16 08:40:46;;;;;;;21.50;17.02;;;9.00;1.00;;;;;;5082021;28;20218;-82
2022/03/16 08:43:13;;;;;;;44.70;27.20;;;9.00;1.00;;;;;;5071200;28;20224;-82
2022/03/16 08:45:40;;;;;;;25.43;16.87;;;9.10;1.00;;;;;;5073424;28;20862;-82
2022/03/16 08:48:07;;;;;;;20.27;16.57;;;9.30;1.00;;;;;;5096639;28;20420;-85
2022/03/16 08:50:37;;;;;;;22.20;16.87;;;9.40;1.00;;;;;;5082326;28;21172;-84
2022/03/16 08:53:03;;;;;;;21.88;16.08;;;9.40;1.00;;;;;;5098832;28;20450;-84
2022/03/16 08:55:31;;;;;;;24.13;17.63;;;9.50;1.00;;;;;;5080162;28;20257;-82
2022/03/16 08:57:58;;;;;;;24.07;17.53;;;9.60;1.00;;;;;;5093828;28;21316;-83
2022/03/16 09:00:25;;;;;;;20.25;16.45;;;9.60;1.00;;;;;;5082354;28;20582;-82
2022/03/16 09:02:52;;;;;;;16.93;14.13;;;9.60;1.00;;;;;;5084785;28;20247;-83
2022/03/16 09:05:21;;;;;;;20.58;15.55;;;9.70;1.00;;;;;;5071184;28;20624;-82
2022/03/16 09:07:48;;;;;;;18.00;14.00;;;9.50;1.00;;;;;;5077761;28;20202;-83
2022/03/16 09:10:15;;;;;;;18.30;15.00;;;9.30;1.00;;;;;;5072540;28;20528;-81
2022/03/16 09:12:44;;;;;;;18.73;15.03;;;9.30;1.00;;;;;;5054781;28;20312;-82
2022/03/16 09:15:11;;;;;;;19.43;14.40;;;9.30;1.00;;;;;;5074761;28;20549;-83
2022/03/16 09:17:38;;;;;;;26.10;14.73;;;9.30;1.00;;;;;;5086302;28;20604;-83
2022/03/16 09:20:06;;;;;;;23.10;16.60;;;9.40;1.00;;;;;;5063597;28;20463;-83
2022/03/16 09:22:34;;;;;;;15.47;12.50;;;9.50;1.00;;;;;;5081003;28;20451;-84
2022/03/16 09:25:01;;;;;;;17.17;12.57;;;9.60;1.00;;;;;;5076920;28;20435;-79
2022/03/16 09:27:28;;;;;;;18.30;14.00;;;9.80;1.00;;;;;;5072114;28;21052;-79
2022/03/16 09:29:56;;;;;;;23.13;14.73;;;9.90;1.00;;;;;;5075259;28;20430;-78
2022/03/16 09:32:23;;;;;;;16.30;13.10;;;10.10;1.00;;;;;;5082984;28;20451;-81
2022/03/16 09:34:49;;;;;;;17.87;13.53;;;10.20;1.00;;;;;;5083737;28;20435;-84
2022/03/16 09:37:16;;;;;;;17.47;13.53;;;10.20;1.00;;;;;;5078685;28;21195;-81
2022/03/16 09:39:44;;;;;;;18.00;14.77;;;10.20;1.00;;;;;;5078027;28;21652;-82
2022/03/16 09:42:11;;;;;;;18.47;14.13;;;10.30;1.00;;;;;;5080748;28;20548;-83
2022/03/16 09:44:39;;;;;;;19.83;13.67;;;10.30;1.00;;;;;;5080454;28;20458;-83
2022/03/16 09:47:09;;;;;;;18.73;12.50;;;10.30;1.00;;;;;;5076083;28;20465;-81
2022/03/16 09:49:38;;;;;;;18.77;13.03;;;10.30;1.00;;;;;;5075515;28;20431;-83
2022/03/16 09:52:07;;;;;;;17.43;12.27;;;10.40;1.00;;;;;;5076378;28;20444;-84
2022/03/16 09:54:34;;;;;;;13.20;11.80;;;10.40;1.00;;;;;;5083839;28;20419;-84
2022/03/16 09:57:01;;;;;;;15.70;12.47;;;10.60;1.00;;;;;;5066441;28;20515;-81
2022/03/16 09:59:28;;;;;;;18.37;13.17;;;10.90;1.00;;;;;;5081735;28;20456;-84
2022/03/16 10:01:59;;;;;;;22.43;16.80;;;11.30;1.00;;;;;;5065790;28;20660;-82
2022/03/16 10:04:33;;;;;;;21.40;15.60;;;11.50;1.00;;;;;;5084641;28;20858;-82
2022/03/16 10:07:01;;;;;;;20.33;15.13;;;11.50;1.00;;;;;;5086180;28;20515;-83
2022/03/16 10:15:05;;;;;;;19.20;14.27;;;11.50;1.00;;;;;;5086512;28;20428;-82
2022/03/16 10:17:44;;;;;;;19.07;14.77;;;11.50;1.00;;;;;;5077436;28;20497;-83
2022/03/16 10:20:21;;;;;;;21.07;14.77;;;11.50;1.00;;;;;;5074233;28;20443;-81
2022/03/16 10:22:55;;;;;;;24.40;20.87;;;11.50;1.00;;;;;;5075892;28;20462;-81
2022/03/16 10:25:22;;;;;;;21.53;14.57;;;11.50;1.00;;;;;;5080103;28;20450;-81
2022/03/16 10:27:49;;;;;;;18.10;14.07;;;11.50;1.00;;;;;;5074591;28;20443;-81
2022/03/16 10:30:15;;;;;;;18.80;14.50;;;11.60;1.00;;;;;;5078949;28;20451;-80
2022/03/16 10:32:53;;;;;;;15.40;12.63;;;11.80;1.00;;;;;;5075726;28;20610;-81
2022/03/16 10:35:23;;;;;;;17.40;12.63;;;12.10;1.00;;;;;;5077014;28;20411;-80
2022/03/16 10:37:50;;;;;;;15.93;11.77;;;12.20;1.00;;;;;;5077418;28;20428;-80
2022/03/16 10:40:23;;;;;;;15.10;11.47;;;12.20;1.00;;;;;;5073855;28;20407;-80
2022/03/16 10:48:20;;;;;;;15.47;11.77;;;12.00;1.00;;;;;;5075309;28;20935;-81
2022/03/16 10:50:50;;;;;;;12.30;10.10;;;12.00;1.00;;;;;;5075224;28;20459;-80
2022/03/16 10:53:18;;;;;;;18.00;11.30;;;12.00;1.00;;;;;;5077880;28;20434;-81
2022/03/16 10:55:46;;;;;;;14.73;11.57;;;12.00;1.00;;;;;;5088082;28;20416;-80
2022/03/16 10:58:15;;;;;;;16.93;12.27;;;12.10;1.00;;;;;;5076347;28;20420;-80
2022/03/16 11:00:43;;;;;;;14.77;11.27;;;12.30;1.00;;;;;;5075197;28;20572;-80
2022/03/16 11:03:14;;;;;;;15.97;11.50;;;12.30;1.00;;;;;;5080062;28;20448;-81
2022/03/16 11:05:43;;;;;;;14.87;11.40;;;12.30;1.00;;;;;;5073725;28;20492;-80
2022/03/16 11:08:12;;;;;;;16.90;13.03;;;12.50;1.00;;;;;;5056507;28;20470;-79
2022/03/16 11:10:41;;;;;;;15.80;11.03;;;12.40;1.00;;;;;;5077178;28;20484;-79
2022/03/16 11:15:53;;;;;;;12.27;9.90;;;13.10;1.00;;;;;;5044902;28;20468;-82
2022/03/16 11:18:21;;;;;;;12.10;10.50;;;14.20;1.00;;;;;;5075312;28;20463;-83
2022/03/16 11:20:49;;;;;;;14.43;10.20;;;15.60;1.00;;;;;;5073396;28;20519;-83
2022/03/16 11:26:21;;;;;;;13.40;10.80;;;17.80;1.00;;;;;;5077797;28;20617;-83
2022/03/16 11:28:55;;;;;;;13.17;10.93;;;18.80;1.00;;;;;;5083465;28;20478;-80
2022/03/16 11:31:27;;;;;;;13.37;11.77;;;18.80;1.00;;;;;;5089203;28;20597;-83
2022/03/16 11:33:55;;;;;;;14.40;12.30;;;19.00;1.00;;;;;;5081683;28;20460;-82
2022/03/16 11:36:31;;;;;;;14.20;11.97;;;20.00;1.00;;;;;;5086672;28;20491;-83
2022/03/16 11:39:02;;;;;;;15.17;11.53;;;21.10;1.00;;;;;;5091642;28;20429;-80
2022/03/16 11:41:30;;;;;;;18.83;12.57;;;21.30;1.00;;;;;;5089311;28;20407;-80
2022/03/16 11:44:22;;;;;;;14.80;12.50;;;22.20;1.00;;;;;;5092421;28;20460;-79
2022/03/16 11:46:48;;;;;;;13.57;11.90;;;22.60;1.00;;;;;;5089981;28;20433;-79
2022/03/16 11:49:26;;;;;;;15.70;12.07;;;22.10;1.00;;;;;;5088980;28;20565;-79
2022/03/16 11:51:59;;;;;;;22.87;20.43;;;21.70;1.00;;;;;;5077569;28;20436;-80
2022/03/16 11:54:49;;;;;;;13.93;12.50;;;22.50;1.00;;;;;;5063271;28;20455;-79
2022/03/16 11:57:36;;;;;;;16.17;13.90;;;24.10;1.00;;;;;;5066291;28;20446;-79
2022/03/16 12:00:13;;;;;;;16.30;14.20;;;25.50;1.00;;;;;;5065393;28;21032;-79
2022/03/16 12:02:41;;;;;;;17.20;14.53;;;26.20;1.00;;;;;;5075580;28;20555;-82
2022/03/16 12:05:14;;;;;;;14.07;12.07;;;26.40;1.00;;;;;;5077229;28;20463;-81
2022/03/16 12:07:41;;;;;;;14.50;13.00;;;26.20;1.00;;;;;;5059892;28;20471;-80
2022/03/16 12:10:15;;;;;;;16.63;13.50;;;25.90;1.00;;;;;;5075113;28;21713;-83
2022/03/16 12:12:54;;;;;;;16.57;14.80;;;25.90;1.00;;;;;;5078819;28;20467;-82
2022/03/16 12:15:28;;;;;;;16.30;14.20;;;26.00;1.00;;;;;;5076849;28;20458;-84
2022/03/16 12:18:31;;;;;;;16.87;14.10;;;25.90;1.00;;;;;;5080408;28;20447;-82
2022/03/16 12:21:10;;;;;;;18.10;15.80;;;26.70;1.00;;;;;;5078395;28;20447;-83
2022/03/16 12:23:58;;;;;;;17.30;15.50;;;27.90;1.00;;;;;;5064006;28;20464;-85
2022/03/16 12:26:29;;;;;;;17.20;15.40;;;28.60;1.00;;;;;;5083887;28;20458;-86
2022/03/16 12:29:05;;;;;;;19.37;17.30;;;28.80;1.00;;;;;;5081701;28;20534;-86
2022/03/16 12:31:34;;;;;;;17.90;16.00;;;28.40;1.00;;;;;;5084244;28;20698;-84
2022/03/16 12:34:01;;;;;;;18.93;16.87;;;28.00;1.00;;;;;;5094593;28;20444;-85
2022/03/16 12:36:31;;;;;;;18.87;16.87;;;27.60;1.00;;;;;;5102147;28;20427;-86
2022/03/16 12:39:02;;;;;;;18.40;16.33;;;27.30;1.00;;;;;;5065482;28;20448;-85
2022/03/16 12:44:17;;;;;;;20.60;18.40;;;27.00;1.00;;;;;;5092616;28;20451;-86
2022/03/16 12:46:53;;;;;;;25.67;21.07;;;26.80;1.00;;;;;;5090060;28;20602;-86
2022/03/16 12:49:23;;;;;;;24.27;21.03;;;26.60;1.00;;;;;;5074876;28;20453;-85
2022/03/16 12:51:51;;;;;;;23.00;19.37;;;26.70;1.00;;;;;;5088774;28;20474;-84
2022/03/16 12:54:28;;;;;;;25.13;20.70;;;26.90;1.00;;;;;;5083201;28;21277;-83
2022/03/16 12:57:01;;;;;;;21.73;18.63;;;27.40;1.00;;;;;;5086192;28;20455;-85
2022/03/16 12:59:32;;;;;;;21.40;18.70;;;27.60;1.00;;;;;;5089657;28;20432;-84
2022/03/16 13:02:01;;;;;;;21.37;19.07;;;27.90;1.00;;;;;;5086082;28;20512;-84
2022/03/16 13:04:29;;;;;;;23.60;20.10;;;27.80;1.00;;;;;;5084739;28;20460;-84
2022/03/16 13:06:58;;;;;;;22.03;19.57;;;28.50;1.00;;;;;;5089084;28;20445;-84
2022/03/16 13:09:32;;;;;;;21.53;19.20;;;28.60;1.00;;;;;;5098148;28;20444;-87
2022/03/16 13:12:11;;;;;;;23.73;20.03;;;28.30;1.00;;;;;;5067780;28;20466;-83